Thursday, May 25, 2017, 8:23 AM EDT

KPOU, Poughkeepsie Dutchess Cty

Location: Wappingers Falls, NY, United States Lat: 41.633
Local Time: 8:23 AM EDT (12:23 GMT) Lon: -73.883
Time Zone: US/Eastern Elev: 167 ft

Show me the last for .
Show Decoded

2017-05-25 07:53 METAR KPOU 251153Z AUTO 03004KT 10SM -RA OVC016 13/11 A2972 RMK AO2 RAE1058B49
                 SLP061 P0000 60002 70002 T01330111 10139 20122 58017 =
2017-05-25 06:53 METAR KPOU 251053Z AUTO 06004KT 10SM -RA OVC018 13/11 A2975 RMK AO2 RAE07B27
                 SLP068 P0001 T01330106 =
2017-05-25 05:53 METAR KPOU 250953Z 08005KT 7SM -RA OVC020 13/10 A2976 RMK AO2 RAB08E26B48 SLP074
                 P0001 T01330100 =
2017-05-25 05:10 METAR KPOU 250910Z 08006KT 10SM -RA BKN025 13/09 A2977 RMK AO2 RAB08 P0000
                 T01330094 =
2017-05-25 04:53 METAR KPOU 250853Z 04004KT 10SM FEW025 13/10 A2977 RMK AO2 SLP077 T01280100
                 56012 =
2017-05-25 03:53 METAR KPOU 250753Z 00000KT 10SM CLR 12/10 A2977 RMK AO2 SLP078 T01220100 =
2017-05-25 02:53 METAR KPOU 250653Z 00000KT 10SM CLR 12/10 A2978 RMK AO2 SLP081 T01220100 =
2017-05-25 01:53 METAR KPOU 250553Z 00000KT 10SM CLR 13/09 A2981 RMK AO2 SLP088 T01330094 10194
                 20133 58003 =
2017-05-25 00:53 METAR KPOU 250453Z 00000KT 10SM CLR 14/09 A2981 RMK AO2 SLP093 T01390094
                 402330111 =
2017-05-24 23:53 METAR KPOU 250353Z 10004KT 10SM BKN085 14/09 A2982 RMK AO2 SLP095 T01440094 =
2017-05-24 22:53 METAR KPOU 250253Z 10006KT 10SM CLR 15/09 A2981 RMK AO2 SLP093 T01500094 51019 =
2017-05-24 21:53 METAR KPOU 250153Z 14007KT 110V180 10SM CLR 16/09 A2981 RMK AO2 SLP090 T01610094
                 =
2017-05-24 20:53 METAR KPOU 250053Z 18003KT 10SM CLR 18/09 A2979 RMK AO2 SLP083 T01780094 =
2017-05-24 19:53 METAR KPOU 242353Z 18005KT 10SM CLR 19/09 A2976 RMK AO2 SLP074 T01940094 10233
                 20194 53007 =
2017-05-24 18:53 METAR KPOU 242253Z 13004KT 10SM BKN060 22/09 A2974 RMK AO2 SLP068 T02170094 =
2017-05-24 17:53 METAR KPOU 242153Z 11007KT 10SM BKN065 22/09 A2973 RMK AO2 SLP065 T02220094 =
2017-05-24 16:53 METAR KPOU 242053Z 15007KT 10SM SCT065 22/09 A2974 RMK AO2 SLP066 T02220089
                 50004 =
2017-05-24 15:53 METAR KPOU 241953Z 11007KT 10SM FEW060 FEW110 23/09 A2974 RMK AO2 SLP067
                 T02280089 =
2017-05-24 14:53 METAR KPOU 241853Z VRB04KT 10SM SCT055 22/09 A2973 RMK AO2 SLP064 T02220089 =
2017-05-24 13:53 METAR KPOU 241753Z COR VRB05KT 10SM SCT055 22/09 A2973 RMK AO2 SLP062 T02220089
                 10228 20133 58016 =
2017-05-24 12:53 METAR KPOU 241653Z 05006KT 10SM SCT049 BKN120 21/10 A2975 RMK AO2 SLP071
                 T02060100 =
2017-05-24 11:53 METAR KPOU 241553Z AUTO 00000KT 10SM SCT033 19/12 A2976 RMK AO2 SLP073 T01940117
                 =
2017-05-24 10:53 METAR KPOU 241453Z AUTO 00000KT 10SM SCT120 18/12 A2977 RMK AO2 SLP078 T01780117
                 51009 =
2017-05-24 09:53 METAR KPOU 241353Z AUTO 00000KT 10SM SCT120 17/12 A2977 RMK AO2 SLP077 T01670117
                 =
2017-05-24 08:53 METAR KPOU 241253Z AUTO 26003KT 10SM OVC120 14/11 A2976 RMK AO2 SLP074 T01390111
                 =

Support USWX by starting your Amazon purchase here.